Time;durP1;ratioP1;P1;durP2;ratioP2;P2;SDS_P1;SDS_P2;PMS_P1;PMS_P2;Temp;Humidity;BMP_temperature;BMP_pressure;BME280_temperature;BME280_humidity;BME280_pressure;Samples;Min_cycle;Max_cycle;Signal;HPM_P1;HPM_P2
2022/04/19 00:00:09;;;;;;;1999.90;999.90;;;5.40;99.90;;;;;;5092307;28;20980;-63
2022/04/19 00:02:36;;;;;;;1999.90;999.90;;;5.40;99.90;;;;;;5091848;28;20448;-64
2022/04/19 00:05:03;;;;;;;1999.90;999.90;;;5.40;99.90;;;;;;5092201;28;20445;-64
2022/04/19 00:07:30;;;;;;;1999.90;999.90;;;5.50;99.90;;;;;;5091338;28;20985;-64
2022/04/19 00:09:56;;;;;;;1999.90;999.90;;;5.40;99.90;;;;;;5092110;28;20799;-65
2022/04/19 00:12:23;;;;;;;1999.90;999.90;;;5.40;99.90;;;;;;5091957;28;20498;-64
2022/04/19 00:14:49;;;;;;;1999.90;999.90;;;5.40;99.90;;;;;;5092048;28;20513;-64
2022/04/19 00:17:18;;;;;;;1999.90;999.90;;;5.40;99.90;;;;;;5091172;28;20485;-64
2022/04/19 00:19:45;;;;;;;1999.90;999.90;;;5.40;99.90;;;;;;5091698;28;20540;-65
2022/04/19 00:22:13;;;;;;;1999.90;999.90;;;5.40;99.90;;;;;;5091106;28;20493;-64
2022/04/19 00:24:39;;;;;;;1999.90;999.90;;;5.40;99.90;;;;;;5091625;28;20454;-64
2022/04/19 00:27:06;;;;;;;1999.90;999.90;;;5.30;99.90;;;;;;5091479;28;20883;-63
2022/04/19 00:29:33;;;;;;;1999.90;999.90;;;5.20;99.90;;;;;;5091767;28;20452;-64
2022/04/19 00:32:00;;;;;;;1999.90;999.90;;;4.80;99.90;;;;;;5091625;28;21007;-62
2022/04/19 00:34:28;;;;;;;1999.90;999.90;;;4.50;99.90;;;;;;5095511;28;20479;-64
2022/04/19 00:36:55;;;;;;;1999.90;999.90;;;4.40;99.90;;;;;;5095566;28;20543;-63
2022/04/19 00:39:22;;;;;;;1999.90;999.90;;;4.30;99.90;;;;;;5095468;28;20513;-64
2022/04/19 00:41:49;;;;;;;1999.90;999.90;;;4.30;99.90;;;;;;5095404;28;20448;-64
2022/04/19 00:44:15;;;;;;;1999.90;999.90;;;4.30;99.90;;;;;;5095077;28;20448;-64
2022/04/19 00:46:42;;;;;;;1999.90;999.90;;;4.40;99.90;;;;;;5094533;28;20464;-63
2022/04/19 00:49:09;;;;;;;1999.90;999.90;;;4.40;99.90;;;;;;5095394;28;20501;-63
2022/04/19 00:51:37;;;;;;;1999.90;999.90;;;4.40;99.90;;;;;;5095270;28;20545;-64
2022/04/19 00:54:04;;;;;;;1999.90;999.90;;;4.30;99.90;;;;;;5095190;28;20445;-63
2022/04/19 00:56:31;;;;;;;1999.90;999.90;;;4.20;99.90;;;;;;5095027;28;20517;-64
2022/04/19 00:58:58;;;;;;;1999.90;999.90;;;4.20;99.90;;;;;;5094629;28;20884;-64
2022/04/19 01:01:25;;;;;;;1999.90;999.90;;;4.30;99.90;;;;;;5094874;28;20501;-64
2022/04/19 01:03:51;;;;;;;1999.90;999.90;;;4.50;99.90;;;;;;5094640;28;20448;-64
2022/04/19 01:06:18;;;;;;;1999.90;999.90;;;4.40;99.90;;;;;;5094611;28;20475;-64
2022/04/19 01:08:46;;;;;;;1999.90;999.90;;;4.40;99.90;;;;;;5094847;28;20445;-64
2022/04/19 01:14:03;;;;;;;1999.90;999.90;;;4.40;99.90;;;;;;5054792;28;20526;-64
2022/04/19 01:16:30;;;;;;;1999.90;999.90;;;4.50;99.90;;;;;;5095021;28;20539;-64
2022/04/19 01:18:57;;;;;;;1999.90;999.90;;;4.50;99.90;;;;;;5094446;28;20886;-64
2022/04/19 01:21:27;;;;;;;1999.90;999.90;;;4.60;99.90;;;;;;5094218;28;20452;-64
2022/04/19 01:23:55;;;;;;;1999.90;999.90;;;4.60;99.90;;;;;;5094548;28;20494;-64
2022/04/19 01:26:21;;;;;;;1999.90;999.90;;;4.80;99.90;;;;;;5093726;28;20476;-64
2022/04/19 01:28:48;;;;;;;1999.90;999.90;;;4.80;99.90;;;;;;5094429;28;20451;-65
2022/04/19 01:31:15;;;;;;;1999.90;999.90;;;4.80;99.90;;;;;;5093823;28;20444;-63
2022/04/19 01:33:41;;;;;;;1999.90;999.90;;;4.80;99.90;;;;;;5073853;28;20446;-64
2022/04/19 01:36:10;;;;;;;1999.90;999.90;;;4.70;99.90;;;;;;5091067;28;20887;-64
2022/04/19 01:38:36;;;;;;;1999.90;999.90;;;4.40;99.90;;;;;;5093669;28;21021;-64
2022/04/19 01:41:04;;;;;;;1999.90;999.90;;;4.30;99.90;;;;;;5094376;28;20444;-64
2022/04/19 01:43:31;;;;;;;1999.90;999.90;;;4.40;99.90;;;;;;5093089;28;20452;-64
2022/04/19 01:45:58;;;;;;;1999.90;999.90;;;4.40;99.90;;;;;;5094191;28;20875;-64
2022/04/19 01:48:24;;;;;;;1999.90;999.90;;;4.50;99.90;;;;;;5093846;28;20972;-64
2022/04/19 01:50:51;;;;;;;1999.90;999.90;;;4.50;99.90;;;;;;5093883;28;20448;-63
2022/04/19 01:53:17;;;;;;;1999.90;999.90;;;4.40;99.90;;;;;;5093379;28;20445;-65
2022/04/19 01:55:45;;;;;;;1999.90;999.90;;;4.50;99.90;;;;;;5093445;28;20517;-64
2022/04/19 01:58:13;;;;;;;1999.90;999.90;;;4.50;99.90;;;;;;5092678;28;20480;-63
2022/04/19 02:00:40;;;;;;;1999.90;999.90;;;4.40;99.90;;;;;;5093583;28;20452;-64
2022/04/19 02:03:06;;;;;;;1999.90;999.90;;;4.40;99.90;;;;;;5093378;28;20448;-64
2022/04/19 02:05:33;;;;;;;1999.90;999.90;;;4.40;99.90;;;;;;5093819;28;20444;-64
2022/04/19 02:08:00;;;;;;;1999.90;999.90;;;4.50;99.90;;;;;;5093050;28;20865;-63
2022/04/19 02:10:26;;;;;;;1999.90;999.90;;;4.60;99.90;;;;;;5093385;28;20562;-64
2022/04/19 02:12:53;;;;;;;1999.90;999.90;;;4.60;99.90;;;;;;5093323;28;20448;-64
2022/04/19 02:15:21;;;;;;;1999.90;999.90;;;4.70;99.90;;;;;;5093739;28;20501;-64
2022/04/19 02:17:49;;;;;;;1999.90;999.90;;;4.70;99.90;;;;;;5093229;28;20472;-64
2022/04/19 02:20:18;;;;;;;1999.90;999.90;;;4.70;99.90;;;;;;5093639;28;20451;-64
2022/04/19 02:22:46;;;;;;;1999.90;999.90;;;4.80;99.90;;;;;;5092791;28;20478;-64
2022/04/19 02:25:14;;;;;;;1999.90;999.90;;;4.90;99.90;;;;;;5080453;28;20950;-64
2022/04/19 02:27:41;;;;;;;1999.90;999.90;;;4.80;99.90;;;;;;5093342;28;20460;-63
2022/04/19 02:30:13;;;;;;;1999.90;999.90;;;4.50;99.90;;;;;;5092368;28;20886;-65
2022/04/19 02:32:42;;;;;;;1999.90;999.90;;;4.30;99.90;;;;;;5093192;28;20449;-64
2022/04/19 02:35:09;;;;;;;1999.90;999.90;;;4.30;99.90;;;;;;5092944;28;20447;-64
2022/04/19 02:37:36;;;;;;;1999.90;999.90;;;4.10;99.90;;;;;;5092865;28;20556;-64
2022/04/19 02:40:03;;;;;;;1999.90;999.90;;;4.10;99.90;;;;;;5092830;28;20453;-63
2022/04/19 02:42:30;;;;;;;1999.90;999.90;;;4.20;99.90;;;;;;5092616;28;20443;-64
2022/04/19 02:44:57;;;;;;;1999.90;999.90;;;4.10;99.90;;;;;;5093387;28;20448;-64
2022/04/19 02:47:24;;;;;;;1999.90;999.90;;;4.10;99.90;;;;;;5092996;28;20464;-64
2022/04/19 02:49:51;;;;;;;1999.90;999.90;;;4.20;99.90;;;;;;5093153;28;20445;-64
2022/04/19 02:52:18;;;;;;;1999.90;999.90;;;4.20;99.90;;;;;;5092200;28;20448;-64
2022/04/19 02:54:45;;;;;;;1999.90;999.90;;;4.30;99.90;;;;;;5092020;28;20857;-60
2022/04/19 02:57:11;;;;;;;1999.90;999.90;;;4.30;99.90;;;;;;5092397;28;20502;-61
2022/04/19 02:59:38;;;;;;;1999.90;999.90;;;4.30;99.90;;;;;;5096266;28;20537;-62
2022/04/19 03:02:05;;;;;;;1999.90;999.90;;;4.30;99.90;;;;;;5098413;28;20457;-64
2022/04/19 03:04:32;;;;;;;1999.90;999.90;;;4.30;99.90;;;;;;5099661;28;20524;-64
2022/04/19 03:07:00;;;;;;;1999.90;999.90;;;4.30;99.90;;;;;;5099231;28;20518;-65
2022/04/19 03:09:26;;;;;;;1999.90;999.90;;;4.20;99.90;;;;;;5093163;28;20448;-65
2022/04/19 03:11:53;;;;;;;1999.90;999.90;;;4.30;99.90;;;;;;5092240;28;20513;-64
2022/04/19 03:14:21;;;;;;;1999.90;999.90;;;4.20;99.90;;;;;;5092343;28;20452;-65
2022/04/19 03:16:47;;;;;;;1999.90;999.90;;;4.20;99.90;;;;;;5092636;28;20469;-65
2022/04/19 03:19:14;;;;;;;1999.90;999.90;;;4.30;99.90;;;;;;5091945;28;20485;-66
2022/04/19 03:21:41;;;;;;;1999.90;999.90;;;4.20;99.90;;;;;;5091776;28;20444;-65
2022/04/19 03:29:38;;;;;;;1999.90;999.90;;;4.20;99.90;;;;;;5072878;28;20405;-64
2022/04/19 03:32:05;;;;;;;1999.90;999.90;;;4.20;99.90;;;;;;5091679;28;20937;-65
2022/04/19 03:34:32;;;;;;;1999.90;999.90;;;4.10;99.90;;;;;;5091901;28;20482;-64
2022/04/19 03:36:58;;;;;;;1999.90;999.90;;;4.40;99.90;;;;;;5091293;28;20551;-64
2022/04/19 03:39:26;;;;;;;1999.90;999.90;;;4.10;99.90;;;;;;5092391;28;20480;-64
2022/04/19 03:41:54;;;;;;;1999.90;999.90;;;4.20;99.90;;;;;;5091755;28;20456;-64
2022/04/19 03:44:23;;;;;;;1999.90;999.90;;;4.20;99.90;;;;;;5092297;28;20804;-65
2022/04/19 03:47:08;;;;;;;1999.90;999.90;;;4.20;99.90;;;;;;5091450;28;20470;-65
2022/04/19 03:49:35;;;;;;;1999.90;999.90;;;4.20;99.90;;;;;;5091961;28;20428;-64
2022/04/19 03:52:03;;;;;;;1999.90;999.90;;;4.10;99.90;;;;;;5091233;28;20452;-64
2022/04/19 03:54:31;;;;;;;1999.90;999.90;;;4.10;99.90;;;;;;5091798;28;20448;-65
2022/04/19 03:56:58;;;;;;;1999.90;999.90;;;4.00;99.90;;;;;;5091944;28;20470;-65
2022/04/19 03:59:24;;;;;;;1999.90;999.90;;;3.90;99.90;;;;;;5091710;28;20476;-65
2022/04/19 04:01:51;;;;;;;1999.90;999.90;;;3.80;99.90;;;;;;5091370;28;20502;-64
2022/04/19 04:04:18;;;;;;;1999.90;999.90;;;3.80;99.90;;;;;;5091412;28;20490;-65
2022/04/19 04:06:44;;;;;;;1999.90;999.90;;;3.80;99.90;;;;;;5094145;28;20993;-65
2022/04/19 04:09:11;;;;;;;1999.90;999.90;;;3.90;99.90;;;;;;5096103;28;21164;-65
2022/04/19 04:11:39;;;;;;;1999.90;999.90;;;4.00;99.90;;;;;;5095040;28;20493;-65
2022/04/19 04:14:06;;;;;;;1999.90;999.90;;;3.90;99.90;;;;;;5095936;28;20456;-66
2022/04/19 04:16:32;;;;;;;1999.90;999.90;;;3.80;99.90;;;;;;5095586;28;20476;-65
2022/04/19 04:18:59;;;;;;;1999.90;999.90;;;3.70;99.90;;;;;;5095466;28;20472;-65
2022/04/19 04:21:25;;;;;;;1999.90;999.90;;;3.70;99.90;;;;;;5095538;28;20440;-65
2022/04/19 04:23:52;;;;;;;1999.90;999.90;;;3.70;99.90;;;;;;5095082;28;21115;-65
2022/04/19 04:26:19;;;;;;;1999.90;999.90;;;3.70;99.90;;;;;;5095192;28;20480;-65
2022/04/19 04:28:47;;;;;;;1999.90;999.90;;;3.50;99.90;;;;;;5095713;28;20444;-65
2022/04/19 04:31:13;;;;;;;1999.90;999.90;;;3.40;99.90;;;;;;5094852;28;20498;-65
2022/04/19 04:33:40;;;;;;;1999.90;999.90;;;3.40;99.90;;;;;;5094888;28;20494;-65
2022/04/19 04:36:07;;;;;;;1999.90;999.90;;;3.30;99.90;;;;;;5095356;28;20475;-65
2022/04/19 04:38:33;;;;;;;1999.90;999.90;;;3.40;99.90;;;;;;5095846;28;20509;-66
2022/04/19 04:41:00;;;;;;;1999.90;999.90;;;3.40;99.90;;;;;;5098607;28;20475;-65
2022/04/19 04:43:27;;;;;;;1999.90;999.90;;;3.20;99.90;;;;;;5095425;28;20448;-65
2022/04/19 04:51:19;;;;;;;1999.90;999.90;;;3.50;99.90;;;;;;5105117;28;20504;-66
2022/04/19 04:53:46;;;;;;;1999.90;999.90;;;3.30;99.90;;;;;;5116345;28;20474;-65
2022/04/19 04:56:12;;;;;;;1999.90;999.90;;;3.30;99.90;;;;;;5115306;28;20490;-65
2022/04/19 04:58:39;;;;;;;1999.90;999.90;;;3.20;99.90;;;;;;5112810;28;20480;-65
2022/04/19 05:01:07;;;;;;;1999.90;999.90;;;3.20;99.90;;;;;;5111428;28;20517;-65
2022/04/19 05:03:34;;;;;;;1999.90;999.90;;;3.30;99.90;;;;;;5110924;28;20444;-65
2022/04/19 05:06:01;;;;;;;1999.90;999.90;;;3.40;99.90;;;;;;5098403;28;20468;-64
2022/04/19 05:08:27;;;;;;;1999.90;999.90;;;3.20;99.90;;;;;;5094749;28;20497;-65
2022/04/19 05:10:54;;;;;;;1999.90;999.90;;;3.40;99.90;;;;;;5096201;28;20486;-66
2022/04/19 05:13:21;;;;;;;1999.90;999.90;;;3.50;99.90;;;;;;5093844;28;20440;-66
2022/04/19 05:15:47;;;;;;;1999.90;999.90;;;3.70;99.90;;;;;;5095475;28;20460;-66
2022/04/19 05:18:15;;;;;;;1999.90;999.90;;;3.90;99.90;;;;;;5095147;28;20452;-66
2022/04/19 05:20:42;;;;;;;1999.90;999.90;;;4.00;99.90;;;;;;5095588;28;20484;-64
2022/04/19 05:23:09;;;;;;;1999.90;999.90;;;4.20;99.90;;;;;;5092894;28;22163;-66
2022/04/19 05:25:35;;;;;;;1999.90;999.90;;;4.30;99.90;;;;;;5094033;28;21017;-67
2022/04/19 05:28:03;;;;;;;1999.90;999.90;;;4.40;99.90;;;;;;5094820;28;20444;-66
2022/04/19 05:30:29;;;;;;;1999.90;999.90;;;4.40;99.90;;;;;;5094157;28;20452;-63
2022/04/19 05:32:56;;;;;;;1999.90;999.90;;;4.50;99.90;;;;;;5093468;28;20950;-66
2022/04/19 05:35:24;;;;;;;1999.90;999.90;;;4.60;99.90;;;;;;5092563;28;20452;-65
2022/04/19 05:37:51;;;;;;;1999.90;999.90;;;4.70;99.90;;;;;;5091220;28;20449;-63
2022/04/19 05:40:17;;;;;;;1999.90;999.90;;;4.90;99.90;;;;;;5081188;28;20469;-65
2022/04/19 05:42:44;;;;;;;1999.90;999.90;;;5.10;99.90;;;;;;5081844;28;20503;-66
2022/04/19 05:45:11;;;;;;;1999.90;999.90;;;5.30;99.90;;;;;;5073028;28;20441;-65
2022/04/19 05:47:37;;;;;;;1999.90;999.90;;;5.60;99.90;;;;;;5090731;28;21001;-64
2022/04/19 05:50:05;;;;;;;1999.90;999.90;;;5.80;99.90;;;;;;5094504;28;20542;-65
2022/04/19 05:52:33;;;;;;;1999.90;999.90;;;6.10;99.90;;;;;;5094026;28;20506;-65
2022/04/19 05:54:59;;;;;;;1999.90;999.90;;;6.20;99.90;;;;;;5093316;28;21033;-65
2022/04/19 05:57:26;;;;;;;1999.90;999.90;;;6.50;99.90;;;;;;5093803;28;20460;-65
2022/04/19 05:59:53;;;;;;;1999.90;999.90;;;6.90;99.90;;;;;;5093995;28;20532;-65
2022/04/19 06:05:04;;;;;;;1999.90;999.90;;;7.80;99.90;;;;;;5093127;28;20539;-68
2022/04/19 06:07:32;;;;;;;1999.90;999.90;;;8.10;99.90;;;;;;5082869;28;20538;-67
2022/04/19 06:10:00;;;;;;;1999.90;999.90;;;8.30;99.90;;;;;;5089365;28;20498;-67
2022/04/19 06:12:27;;;;;;;1999.90;999.90;;;8.40;99.90;;;;;;5093033;28;20790;-67
2022/04/19 06:14:53;;;;;;;1999.90;999.90;;;8.40;99.90;;;;;;5087695;28;20453;-65
2022/04/19 06:17:21;;;;;;;1999.90;999.90;;;8.50;99.90;;;;;;5092538;28;20469;-66
2022/04/19 06:19:48;;;;;;;1999.90;999.90;;;8.30;99.90;;;;;;5093294;28;20468;-68
2022/04/19 06:22:14;;;;;;;1999.90;999.90;;;8.40;99.90;;;;;;5092710;28;20494;-68
2022/04/19 06:24:42;;;;;;;1999.90;999.90;;;8.50;99.90;;;;;;5093211;28;20445;-68
2022/04/19 06:27:09;;;;;;;1999.90;999.90;;;8.70;99.90;;;;;;5092773;28;20472;-66
2022/04/19 06:29:36;;;;;;;1999.90;999.90;;;8.70;99.90;;;;;;5091707;28;20524;-68
2022/04/19 06:32:02;;;;;;;1999.90;999.90;;;8.80;99.90;;;;;;5091120;28;20456;-68
2022/04/19 06:34:29;;;;;;;1999.90;999.90;;;8.90;99.90;;;;;;5092815;28;20448;-67
2022/04/19 06:36:55;;;;;;;1999.90;999.90;;;9.10;99.90;;;;;;5092080;28;21073;-67
2022/04/19 06:39:22;;;;;;;1999.90;999.90;;;9.10;99.90;;;;;;5093127;28;20892;-68
2022/04/19 06:41:50;;;;;;;1999.90;999.90;;;9.20;99.90;;;;;;5076248;28;21028;-67
2022/04/19 06:44:17;;;;;;;1999.90;999.90;;;9.20;99.90;;;;;;5088779;28;20460;-67
2022/04/19 06:46:46;;;;;;;1999.90;999.90;;;9.20;99.90;;;;;;5080173;28;20468;-67
2022/04/19 06:49:13;;;;;;;1999.90;999.90;;;9.20;99.90;;;;;;5102699;28;20483;-68
2022/04/19 06:51:39;;;;;;;1999.90;999.90;;;9.20;99.90;;;;;;5094108;28;20896;-67
2022/04/19 06:54:07;;;;;;;1999.90;999.90;;;9.10;99.90;;;;;;5091091;28;20515;-68
2022/04/19 06:56:35;;;;;;;1999.90;999.90;;;9.50;99.90;;;;;;5092530;28;20500;-68
2022/04/19 06:59:03;;;;;;;1999.90;999.90;;;9.40;99.90;;;;;;5091281;28;21029;-67
2022/04/19 07:01:29;;;;;;;1999.90;999.90;;;9.80;99.90;;;;;;5091996;28;20452;-65
2022/04/19 07:03:56;;;;;;;1999.90;999.90;;;10.30;99.90;;;;;;5082794;28;20456;-66
2022/04/19 07:06:23;;;;;;;1999.90;999.90;;;10.50;98.10;;;;;;5087108;28;20460;-66
2022/04/19 07:08:50;;;;;;;1999.90;999.90;;;10.60;98.50;;;;;;5090948;28;20444;-66
2022/04/19 07:11:16;;;;;;;1999.90;999.90;;;10.80;98.40;;;;;;5089146;28;20440;-66
2022/04/19 07:13:43;;;;;;;1999.90;999.90;;;10.80;97.70;;;;;;5091010;28;20921;-66
2022/04/19 07:16:12;;;;;;;1999.90;999.90;;;10.80;98.30;;;;;;5091151;28;20467;-66
2022/04/19 07:18:38;;;;;;;1999.90;999.90;;;11.20;97.10;;;;;;5091732;28;20457;-66
2022/04/19 07:26:40;;;;;;;1999.90;999.90;;;11.90;95.40;;;;;;5086451;28;20459;-66
2022/04/19 07:29:08;;;;;;;1999.90;999.90;;;11.80;94.90;;;;;;5088474;28;20826;-65
2022/04/19 07:31:35;;;;;;;1999.90;999.90;;;11.70;94.30;;;;;;5086755;28;20460;-66
2022/04/19 07:34:02;;;;;;;1999.90;999.90;;;11.70;94.70;;;;;;5070640;28;21011;-67
2022/04/19 07:36:29;;;;;;;1999.90;999.90;;;11.70;93.90;;;;;;5089125;28;21052;-66
2022/04/19 07:38:57;;;;;;;1999.90;999.90;;;11.50;94.70;;;;;;5091266;28;20452;-66
2022/04/19 07:41:24;;;;;;;1999.90;999.90;;;11.90;94.40;;;;;;5091181;28;20857;-68
2022/04/19 07:43:51;;;;;;;1999.90;999.90;;;11.50;95.00;;;;;;5090610;28;20458;-66
2022/04/19 07:46:18;;;;;;;1999.90;999.90;;;11.70;95.10;;;;;;5091713;28;21080;-68
2022/04/19 07:48:47;;;;;;;1999.90;999.90;;;11.60;95.00;;;;;;5091380;28;20448;-67
2022/04/19 07:51:15;;;;;;;1999.90;999.90;;;11.80;95.00;;;;;;5090493;28;20445;-66
2022/04/19 07:53:42;;;;;;;1999.90;999.90;;;11.60;92.70;;;;;;5089173;28;20445;-66
2022/04/19 07:56:09;;;;;;;1999.90;999.90;;;11.50;91.80;;;;;;5091890;28;20464;-66
2022/04/19 07:58:35;;;;;;;1999.90;999.90;;;11.50;91.60;;;;;;5091226;28;20506;-66
2022/04/19 08:01:02;;;;;;;1999.90;999.90;;;11.60;92.80;;;;;;5091296;28;20910;-66
2022/04/19 08:03:29;;;;;;;1999.90;999.90;;;11.50;94.10;;;;;;5091032;28;20445;-66
2022/04/19 08:05:57;;;;;;;1999.90;999.90;;;11.80;92.30;;;;;;5091922;28;20502;-66
2022/04/19 08:08:24;;;;;;;1999.90;999.90;;;12.20;91.30;;;;;;5090259;28;20946;-66
2022/04/19 08:10:51;;;;;;;1999.90;999.90;;;11.90;92.60;;;;;;5091542;28;20447;-64
2022/04/19 08:13:19;;;;;;;1999.90;999.90;;;12.20;92.40;;;;;;5089647;28;20441;-64
2022/04/19 08:15:46;;;;;;;1999.90;999.90;;;12.30;92.60;;;;;;5091136;28;20476;-64
2022/04/19 08:18:14;;;;;;;1999.90;999.90;;;12.60;92.50;;;;;;5091411;28;20448;-66
2022/04/19 08:20:41;;;;;;;1999.90;999.90;;;12.50;91.80;;;;;;5091223;28;20476;-66
2022/04/19 08:23:09;;;;;;;1999.90;999.90;;;12.30;92.00;;;;;;5079978;28;21060;-67
2022/04/19 08:25:36;;;;;;;1999.90;999.90;;;12.00;92.90;;;;;;5085228;28;20444;-67
2022/04/19 08:28:03;;;;;;;1999.90;999.90;;;11.90;93.70;;;;;;5090770;28;20448;-66
2022/04/19 08:30:31;;;;;;;1999.90;999.90;;;12.00;93.90;;;;;;5091076;28;20890;-67
2022/04/19 08:32:58;;;;;;;1999.90;999.90;;;12.30;92.30;;;;;;5091219;28;20506;-65
2022/04/19 08:35:25;;;;;;;1999.90;999.90;;;12.00;92.50;;;;;;5091137;28;20962;-66
2022/04/19 08:37:51;;;;;;;1999.90;999.90;;;12.10;92.60;;;;;;5091170;28;20876;-68
2022/04/19 08:40:20;;;;;;;1999.90;999.90;;;12.00;92.60;;;;;;5082394;28;20545;-62
2022/04/19 08:42:47;;;;;;;1999.90;999.90;;;12.20;92.70;;;;;;5084515;28;20464;-63
2022/04/19 08:45:16;;;;;;;1999.90;999.90;;;12.30;92.10;;;;;;5082907;28;20499;-63
2022/04/19 08:47:45;;;;;;;1999.90;999.90;;;12.10;92.30;;;;;;5087787;28;21775;-64
2022/04/19 08:50:14;;;;;;;1999.90;999.90;;;11.70;92.70;;;;;;5077731;28;20490;-68
2022/04/19 08:52:42;;;;;;;1999.90;999.90;;;11.70;94.30;;;;;;5087601;28;20452;-62
2022/04/19 08:57:56;;;;;;;1999.90;999.90;;;12.30;93.80;;;;;;5090929;28;20517;-65
2022/04/19 09:00:24;;;;;;;1999.90;999.90;;;12.40;93.30;;;;;;5103928;28;20480;-65
2022/04/19 09:02:52;;;;;;;1999.90;999.90;;;12.70;93.10;;;;;;5103478;28;20487;-64
2022/04/19 09:05:21;;;;;;;1999.90;999.90;;;13.00;93.30;;;;;;5099335;28;20448;-63
2022/04/19 09:07:49;;;;;;;1999.90;999.90;;;13.30;92.50;;;;;;5087631;28;20452;-66
2022/04/19 09:10:25;;;;;;;1999.90;999.90;;;13.30;91.20;;;;;;5098453;28;20466;-67
2022/04/19 09:12:59;;;;;;;1999.90;999.90;;;13.50;91.60;;;;;;5098273;28;20445;-66
2022/04/19 09:15:32;;;;;;;1999.90;999.90;;;13.70;91.00;;;;;;5080349;28;20460;-65
2022/04/19 09:17:59;;;;;;;1999.90;999.90;;;13.80;89.80;;;;;;5091052;28;20449;-63
2022/04/19 09:20:26;;;;;;;1999.90;999.90;;;13.70;87.20;;;;;;5089323;28;20542;-66
2022/04/19 09:23:02;;;;;;;1999.90;999.90;;;13.30;87.40;;;;;;5084974;28;20449;-66
2022/04/19 09:25:29;;;;;;;1999.90;999.90;;;13.00;88.10;;;;;;5074312;28;20433;-66
2022/04/19 09:27:58;;;;;;;1999.90;999.90;;;12.90;89.10;;;;;;5091002;28;20456;-67
2022/04/19 09:30:26;;;;;;;1999.90;999.90;;;13.00;88.40;;;;;;5089735;28;20486;-65
2022/04/19 09:33:08;;;;;;;1999.90;999.90;;;13.50;89.90;;;;;;5084522;28;20449;-67
2022/04/19 09:35:36;;;;;;;1999.90;999.90;;;13.30;90.40;;;;;;5093735;28;20456;-65
2022/04/19 09:38:03;;;;;;;1999.90;999.90;;;13.50;90.30;;;;;;5092960;28;20566;-66
2022/04/19 09:40:31;;;;;;;1999.90;999.90;;;13.70;89.10;;;;;;5093670;28;20530;-65
2022/04/19 09:43:10;;;;;;;1999.90;999.90;;;13.70;87.60;;;;;;5093786;28;20493;-67
2022/04/19 09:45:46;;;;;;;1999.90;999.90;;;14.00;89.90;;;;;;5094213;28;20448;-66
2022/04/19 09:48:16;;;;;;;1999.90;999.90;;;13.80;87.20;;;;;;5094343;28;20476;-66
2022/04/19 09:50:49;;;;;;;1999.90;999.90;;;13.90;88.70;;;;;;5094086;28;20866;-66
2022/04/19 09:53:18;;;;;;;1999.90;999.90;;;13.90;87.10;;;;;;5093591;28;20437;-66
2022/04/19 09:55:48;;;;;;;1999.90;999.90;;;13.70;86.10;;;;;;5094055;28;20548;-66
2022/04/19 09:58:17;;;;;;;1999.90;999.90;;;13.80;88.10;;;;;;5094189;28;20445;-66
2022/04/19 10:00:45;;;;;;;1999.90;999.90;;;14.30;85.00;;;;;;5094018;28;20530;-66
2022/04/19 10:08:44;;;;;;;1999.90;999.90;;;14.50;84.50;;;;;;5093840;28;20415;-65
2022/04/19 10:11:11;;;;;;;1999.90;999.90;;;14.50;84.40;;;;;;5093280;28;20441;-66
2022/04/19 10:13:40;;;;;;;1999.90;999.90;;;14.30;83.80;;;;;;5093042;28;21004;-66
2022/04/19 10:16:11;;;;;;;1999.90;999.90;;;14.10;83.40;;;;;;5093644;28;20460;-65
2022/04/19 10:18:38;;;;;;;1999.90;999.90;;;14.20;85.70;;;;;;5093442;28;20532;-66
2022/04/19 10:21:09;;;;;;;1999.90;999.90;;;14.30;84.50;;;;;;5093470;28;20491;-66
2022/04/19 10:23:37;;;;;;;1999.90;999.90;;;14.10;86.30;;;;;;5093369;28;20452;-66
2022/04/19 10:26:14;;;;;;;1999.90;999.90;;;14.00;86.10;;;;;;5093383;28;20503;-66
2022/04/19 10:28:43;;;;;;;1999.90;999.90;;;14.10;85.80;;;;;;5093443;28;20466;-66
2022/04/19 10:31:11;;;;;;;1999.90;999.90;;;14.00;86.70;;;;;;5093492;28;20445;-66
2022/04/19 10:33:44;;;;;;;1999.90;999.90;;;14.10;86.20;;;;;;5091970;28;21069;-66
2022/04/19 10:36:15;;;;;;;1999.90;999.90;;;14.30;85.90;;;;;;5093536;28;20509;-66
2022/04/19 10:38:42;;;;;;;1999.90;999.90;;;14.50;85.70;;;;;;5091718;28;20510;-65
2022/04/19 10:41:08;;;;;;;1999.90;999.90;;;14.70;87.30;;;;;;5093035;28;20484;-66
2022/04/19 10:43:35;;;;;;;1999.90;999.90;;;14.70;82.60;;;;;;5092835;28;20502;-66
2022/04/19 10:46:20;;;;;;;1999.90;999.90;;;14.70;83.60;;;;;;5099355;28;20471;-66
2022/04/19 10:49:23;;;;;;;1999.90;999.90;;;14.80;84.30;;;;;;5094457;28;20471;-68
2022/04/19 10:51:51;;;;;;;1999.90;999.90;;;14.60;80.10;;;;;;5114384;28;20450;-66
2022/04/19 10:55:04;;;;;;;1999.90;999.90;;;14.40;81.30;;;;;;5115627;28;20445;-67
2022/04/19 11:00:27;;;;;;;1999.90;999.90;;;14.30;81.90;;;;;;5114621;28;20483;-66
2022/04/19 11:02:59;;;;;;;1999.90;999.90;;;14.10;81.60;;;;;;5111311;28;20444;-67
2022/04/19 11:05:41;;;;;;;1999.90;999.90;;;14.10;83.40;;;;;;5100253;28;20544;-66
2022/04/19 11:08:21;;;;;;;1999.90;999.90;;;14.20;83.10;;;;;;5096526;28;20946;-66
2022/04/19 11:10:50;;;;;;;1999.90;999.90;;;14.40;81.10;;;;;;5074841;28;20449;-66
2022/04/19 11:13:17;;;;;;;1999.90;999.90;;;14.10;83.30;;;;;;5075417;28;20509;-65
2022/04/19 11:15:44;;;;;;;1999.90;999.90;;;13.90;82.80;;;;;;5093613;28;20464;-66
2022/04/19 11:18:22;;;;;;;1999.90;999.90;;;14.30;81.70;;;;;;5093965;28;20475;-67
2022/04/19 11:20:49;;;;;;;1999.90;999.90;;;14.00;80.60;;;;;;5095402;28;20529;-66
2022/04/19 11:23:20;;;;;;;1999.90;999.90;;;14.00;82.70;;;;;;5094894;28;20440;-67
2022/04/19 11:25:49;;;;;;;1999.90;999.90;;;14.20;82.70;;;;;;5094008;28;20476;-65
2022/04/19 11:28:33;;;;;;;1999.90;999.90;;;14.20;82.40;;;;;;5093398;28;20980;-67
2022/04/19 11:31:19;;;;;;;1999.90;999.90;;;14.20;80.90;;;;;;5104635;28;20926;-68
2022/04/19 11:33:45;;;;;;;1999.90;999.90;;;14.40;80.00;;;;;;5094116;28;20440;-68
2022/04/19 11:36:15;;;;;;;1999.90;999.90;;;14.70;79.30;;;;;;5094504;28;20476;-68
2022/04/19 11:38:45;;;;;;;1999.90;999.90;;;14.70;79.70;;;;;;5100573;28;20449;-69
2022/04/19 11:46:46;;;;;;;1999.90;999.90;;;14.70;75.10;;;;;;5099738;28;20451;-68
2022/04/19 11:49:28;;;;;;;1999.90;999.90;;;14.70;77.60;;;;;;5098523;28;20472;-68
2022/04/19 11:51:57;;;;;;;1999.90;999.90;;;15.10;75.70;;;;;;5096575;28;20458;-66
2022/04/19 11:54:25;;;;;;;1999.90;999.90;;;14.70;72.90;;;;;;5093284;28;20506;-67
2022/04/19 11:56:54;;;;;;;1999.90;999.90;;;14.40;70.80;;;;;;5092056;28;20514;-67
2022/04/19 11:59:26;;;;;;;1999.90;999.90;;;14.40;72.50;;;;;;5091753;28;20440;-67
2022/04/19 12:01:53;;;;;;;1999.90;999.90;;;14.70;70.00;;;;;;5091609;28;20476;-65
2022/04/19 12:04:20;;;;;;;1999.90;999.90;;;14.70;73.70;;;;;;5092720;28;20502;-67
2022/04/19 12:06:48;;;;;;;1999.90;999.90;;;14.70;73.20;;;;;;5091830;28;20460;-67
2022/04/19 12:09:17;;;;;;;1999.90;999.90;;;14.90;71.40;;;;;;5091589;28;20480;-68
2022/04/19 12:11:45;;;;;;;1999.90;999.90;;;14.80;70.60;;;;;;5091843;28;20440;-68
2022/04/19 12:14:24;;;;;;;1999.90;999.90;;;14.80;69.80;;;;;;5089137;28;20508;-67
2022/04/19 12:16:56;;;;;;;1999.90;999.90;;;14.60;72.10;;;;;;5083678;28;20507;-66
2022/04/19 12:19:33;;;;;;;1999.90;999.90;;;14.70;72.70;;;;;;5090029;28;20563;-68
2022/04/19 12:22:00;;;;;;;1999.90;999.90;;;14.90;72.60;;;;;;5091510;28;20484;-66
2022/04/19 12:24:29;;;;;;;1999.90;999.90;;;15.10;71.40;;;;;;5091175;28;20818;-65
2022/04/19 12:27:06;;;;;;;1999.90;999.90;;;15.20;72.10;;;;;;5091867;28;20488;-67
2022/04/19 12:29:35;;;;;;;1999.90;999.90;;;15.40;70.40;;;;;;5094921;28;20937;-67
2022/04/19 12:32:03;;;;;;;1999.90;999.90;;;15.20;72.30;;;;;;5095409;28;20467;-67
2022/04/19 12:34:34;;;;;;;1999.90;999.90;;;15.10;73.40;;;;;;5095300;28;20456;-67
2022/04/19 12:37:06;;;;;;;1999.90;999.90;;;15.30;72.20;;;;;;5093887;28;20925;-66
2022/04/19 12:39:33;;;;;;;1999.90;999.90;;;15.20;73.00;;;;;;5095572;28;20475;-67
2022/04/19 12:42:07;;;;;;;1999.90;999.90;;;15.50;73.00;;;;;;5095409;28;20481;-66
2022/04/19 12:44:35;;;;;;;1999.90;999.90;;;15.50;73.00;;;;;;5094928;28;20956;-68
2022/04/19 12:47:10;;;;;;;1999.90;999.90;;;15.10;71.90;;;;;;5095514;28;20532;-67